sensor_id;sensor_type;location;lat;lon;timestamp;pressure;altitude;pressure_sealevel;temperature;humidity
13312;BME280;34033;48.672;9.376;2022-12-24T00:00:11;97994.22;;;11.15;93.56
13312;BME280;34033;48.672;9.376;2022-12-24T00:02:37;98003.03;;;11.17;93.00
13312;BME280;34033;48.672;9.376;2022-12-24T00:05:02;98011.84;;;11.12;92.66
13312;BME280;34033;48.672;9.376;2022-12-24T00:07:28;98017.00;;;11.14;92.71
13312;BME280;34033;48.672;9.376;2022-12-24T00:09:53;98030.63;;;11.08;92.10
13312;BME280;34033;48.672;9.376;2022-12-24T00:12:19;98019.03;;;11.13;92.55
13312;BME280;34033;48.672;9.376;2022-12-24T00:14:44;98025.81;;;11.12;92.56
13312;BME280;34033;48.672;9.376;2022-12-24T00:17:09;98018.22;;;11.16;92.40
13312;BME280;34033;48.672;9.376;2022-12-24T00:19:35;98015.03;;;11.18;92.45
13312;BME280;34033;48.672;9.376;2022-12-24T00:22:00;98017.81;;;11.18;92.29
13312;BME280;34033;48.672;9.376;2022-12-24T00:24:25;98026.59;;;11.20;91.91
13312;BME280;34033;48.672;9.376;2022-12-24T00:26:51;98030.19;;;11.20;90.97
13312;BME280;34033;48.672;9.376;2022-12-24T00:29:16;98028.19;;;11.21;91.81
13312;BME280;34033;48.672;9.376;2022-12-24T00:31:41;98037.78;;;11.16;91.12
13312;BME280;34033;48.672;9.376;2022-12-24T00:34:06;98037.00;;;11.09;90.83
13312;BME280;34033;48.672;9.376;2022-12-24T00:36:32;98050.22;;;11.01;91.04
13312;BME280;34033;48.672;9.376;2022-12-24T00:38:58;98048.63;;;11.00;91.69
13312;BME280;34033;48.672;9.376;2022-12-24T00:41:23;98048.25;;;10.95;91.05
13312;BME280;34033;48.672;9.376;2022-12-24T00:43:57;98047.03;;;10.88;90.86
13312;BME280;34033;48.672;9.376;2022-12-24T00:46:24;98055.03;;;10.86;91.19
13312;BME280;34033;48.672;9.376;2022-12-24T00:48:50;98054.25;;;10.82;91.31
13312;BME280;34033;48.672;9.376;2022-12-24T00:51:16;98055.84;;;10.83;91.60
13312;BME280;34033;48.672;9.376;2022-12-24T00:53:41;98058.22;;;10.81;91.57
13312;BME280;34033;48.672;9.376;2022-12-24T00:56:07;98073.81;;;10.82;91.72
13312;BME280;34033;48.672;9.376;2022-12-24T00:58:33;98077.41;;;10.86;92.23
13312;BME280;34033;48.672;9.376;2022-12-24T01:00:59;98068.63;;;10.84;92.11
13312;BME280;34033;48.672;9.376;2022-12-24T01:03:24;98073.41;;;10.87;91.71
13312;BME280;34033;48.672;9.376;2022-12-24T01:06:12;98067.44;;;10.85;92.30
13312;BME280;34033;48.672;9.376;2022-12-24T01:08:38;98077.41;;;10.83;92.21
13312;BME280;34033;48.672;9.376;2022-12-24T01:11:05;98077.81;;;10.81;92.21
13312;BME280;34033;48.672;9.376;2022-12-24T01:13:31;98077.41;;;10.83;92.75
13312;BME280;34033;48.672;9.376;2022-12-24T01:15:57;98081.81;;;10.87;92.77
13312;BME280;34033;48.672;9.376;2022-12-24T01:18:22;98092.59;;;10.85;92.11
13312;BME280;34033;48.672;9.376;2022-12-24T01:21:02;98099.41;;;10.84;92.67
13312;BME280;34033;48.672;9.376;2022-12-24T01:23:29;98110.16;;;10.82;92.34
13312;BME280;34033;48.672;9.376;2022-12-24T01:25:58;98096.56;;;10.81;92.62
13312;BME280;34033;48.672;9.376;2022-12-24T01:28:24;98104.56;;;10.82;93.07
13312;BME280;34033;48.672;9.376;2022-12-24T01:30:49;98107.75;;;10.88;93.00
13312;BME280;34033;48.672;9.376;2022-12-24T01:33:15;98118.16;;;10.91;92.80
13312;BME280;34033;48.672;9.376;2022-12-24T01:35:41;98121.34;;;10.97;92.29
13312;BME280;34033;48.672;9.376;2022-12-24T01:38:07;98118.16;;;10.98;91.71
13312;BME280;34033;48.672;9.376;2022-12-24T01:40:33;98116.97;;;10.88;90.88
13312;BME280;34033;48.672;9.376;2022-12-24T01:43:19;98105.38;;;10.76;90.70
13312;BME280;34033;48.672;9.376;2022-12-24T01:45:52;98090.22;;;10.63;91.33
13312;BME280;34033;48.672;9.376;2022-12-24T01:48:35;98104.59;;;10.58;91.36
13312;BME280;34033;48.672;9.376;2022-12-24T01:51:18;98104.59;;;10.58;91.62
13312;BME280;34033;48.672;9.376;2022-12-24T01:53:48;98113.78;;;10.58;91.86
13312;BME280;34033;48.672;9.376;2022-12-24T01:56:15;98128.53;;;10.55;91.15
13312;BME280;34033;48.672;9.376;2022-12-24T01:58:45;98129.34;;;10.52;90.71
13312;BME280;34033;48.672;9.376;2022-12-24T02:01:12;98136.91;;;10.52;91.25
13312;BME280;34033;48.672;9.376;2022-12-24T02:03:37;98135.72;;;10.45;90.61
13312;BME280;34033;48.672;9.376;2022-12-24T02:06:03;98148.09;;;10.44;90.22
13312;BME280;34033;48.672;9.376;2022-12-24T02:08:29;98142.09;;;10.46;90.13
13312;BME280;34033;48.672;9.376;2022-12-24T02:11:24;98147.72;;;10.57;89.71
13312;BME280;34033;48.672;9.376;2022-12-24T02:13:54;98164.09;;;10.58;89.17
13312;BME280;34033;48.672;9.376;2022-12-24T02:22:16;98167.69;;;10.73;88.22
13312;BME280;34033;48.672;9.376;2022-12-24T02:27:32;98173.66;;;10.71;87.25
13312;BME280;34033;48.672;9.376;2022-12-24T02:30:13;98201.25;;;10.73;87.81
13312;BME280;34033;48.672;9.376;2022-12-24T02:35:32;98207.22;;;10.68;90.22
13312;BME280;34033;48.672;9.376;2022-12-24T02:40:35;98210.81;;;10.82;90.15
13312;BME280;34033;48.672;9.376;2022-12-24T02:43:10;98208.44;;;10.95;89.99
13312;BME280;34033;48.672;9.376;2022-12-24T02:45:39;98198.88;;;11.00;89.58
13312;BME280;34033;48.672;9.376;2022-12-24T02:48:04;98200.06;;;11.02;89.01
13312;BME280;34033;48.672;9.376;2022-12-24T02:50:31;98203.66;;;10.96;88.69
13312;BME280;34033;48.672;9.376;2022-12-24T02:52:56;98213.22;;;10.98;88.32
13312;BME280;34033;48.672;9.376;2022-12-24T03:01:30;98236.44;;;11.06;89.70
13312;BME280;34033;48.672;9.376;2022-12-24T03:06:51;98246.81;;;11.09;89.20
13312;BME280;34033;48.672;9.376;2022-12-24T03:09:26;98239.63;;;11.08;88.85
13312;BME280;34033;48.672;9.376;2022-12-24T03:12:06;98248.00;;;11.15;89.32
13312;BME280;34033;48.672;9.376;2022-12-24T03:14:35;98239.63;;;11.22;89.80
13312;BME280;34033;48.672;9.376;2022-12-24T03:17:03;98228.84;;;11.24;89.59
13312;BME280;34033;48.672;9.376;2022-12-24T03:19:29;98231.63;;;11.17;89.97
13312;BME280;34033;48.672;9.376;2022-12-24T03:21:57;98238.81;;;11.14;90.73
13312;BME280;34033;48.672;9.376;2022-12-24T03:24:24;98242.44;;;11.18;90.66
13312;BME280;34033;48.672;9.376;2022-12-24T03:26:50;98239.63;;;11.25;90.79
13312;BME280;34033;48.672;9.376;2022-12-24T03:29:16;98252.44;;;11.30;90.30
13312;BME280;34033;48.672;9.376;2022-12-24T03:31:43;98278.81;;;11.29;90.14
13312;BME280;34033;48.672;9.376;2022-12-24T03:34:09;98282.41;;;11.22;89.03
13312;BME280;34033;48.672;9.376;2022-12-24T03:36:35;98289.16;;;11.04;88.62
13312;BME280;34033;48.672;9.376;2022-12-24T03:39:00;98276.38;;;10.99;89.46
13312;BME280;34033;48.672;9.376;2022-12-24T03:41:26;98269.59;;;11.04;90.48
13312;BME280;34033;48.672;9.376;2022-12-24T03:43:51;98258.78;;;10.99;90.23
13312;BME280;34033;48.672;9.376;2022-12-24T03:46:16;98261.19;;;10.97;90.18
13312;BME280;34033;48.672;9.376;2022-12-24T03:48:41;98271.56;;;10.89;90.36
13312;BME280;34033;48.672;9.376;2022-12-24T03:51:16;98285.13;;;10.87;90.37
13312;BME280;34033;48.672;9.376;2022-12-24T03:53:42;98290.34;;;10.92;90.04
13312;BME280;34033;48.672;9.376;2022-12-24T03:56:07;98283.56;;;11.00;89.84
13312;BME280;34033;48.672;9.376;2022-12-24T03:58:32;98288.38;;;11.10;89.47
13312;BME280;34033;48.672;9.376;2022-12-24T04:00:58;98282.41;;;11.12;89.32
13312;BME280;34033;48.672;9.376;2022-12-24T04:03:23;98278.41;;;11.13;89.77
13312;BME280;34033;48.672;9.376;2022-12-24T04:06:07;98274.38;;;11.14;89.59
13312;BME280;34033;48.672;9.376;2022-12-24T04:08:34;98263.63;;;11.12;89.38
13312;BME280;34033;48.672;9.376;2022-12-24T04:10:59;98266.00;;;11.10;89.35
13312;BME280;34033;48.672;9.376;2022-12-24T04:13:25;98273.63;;;11.13;89.72
13312;BME280;34033;48.672;9.376;2022-12-24T04:16:07;98269.59;;;11.11;89.90
13312;BME280;34033;48.672;9.376;2022-12-24T04:18:33;98289.19;;;11.11;89.74
13312;BME280;34033;48.672;9.376;2022-12-24T04:20:58;98286.00;;;11.12;90.46
13312;BME280;34033;48.672;9.376;2022-12-24T04:23:24;98282.00;;;11.17;90.39
13312;BME280;34033;48.672;9.376;2022-12-24T04:25:49;98274.41;;;11.17;89.59
13312;BME280;34033;48.672;9.376;2022-12-24T04:28:16;98282.41;;;11.19;89.30
13312;BME280;34033;48.672;9.376;2022-12-24T04:30:42;98290.00;;;11.18;89.47
13312;BME280;34033;48.672;9.376;2022-12-24T04:33:08;98286.78;;;11.20;89.36
13312;BME280;34033;48.672;9.376;2022-12-24T04:35:38;98288.00;;;11.22;88.97
13312;BME280;34033;48.672;9.376;2022-12-24T04:38:04;98264.41;;;11.20;89.10
13312;BME280;34033;48.672;9.376;2022-12-24T04:40:30;98261.63;;;11.16;88.77
13312;BME280;34033;48.672;9.376;2022-12-24T04:42:55;98276.00;;;11.15;88.54
13312;BME280;34033;48.672;9.376;2022-12-24T04:45:20;98284.38;;;11.15;88.63
13312;BME280;34033;48.672;9.376;2022-12-24T04:47:45;98272.81;;;11.16;88.89
13312;BME280;34033;48.672;9.376;2022-12-24T04:50:11;98279.97;;;11.14;88.86
13312;BME280;34033;48.672;9.376;2022-12-24T04:52:36;98293.19;;;11.13;88.94
13312;BME280;34033;48.672;9.376;2022-12-24T04:55:03;98289.59;;;11.13;88.72
13312;BME280;34033;48.672;9.376;2022-12-24T04:57:33;98294.38;;;11.12;88.64
13312;BME280;34033;48.672;9.376;2022-12-24T05:00:00;98288.38;;;11.07;88.38
13312;BME280;34033;48.672;9.376;2022-12-24T05:02:25;98290.38;;;11.06;88.07
13312;BME280;34033;48.672;9.376;2022-12-24T05:04:50;98302.75;;;11.09;87.93
13312;BME280;34033;48.672;9.376;2022-12-24T05:07:16;98303.16;;;11.04;88.08
13312;BME280;34033;48.672;9.376;2022-12-24T05:09:41;98307.56;;;11.05;87.95
13312;BME280;34033;48.672;9.376;2022-12-24T05:12:07;98301.94;;;10.98;88.18
13312;BME280;34033;48.672;9.376;2022-12-24T05:14:32;98299.91;;;10.87;88.10
13312;BME280;34033;48.672;9.376;2022-12-24T05:16:57;98303.47;;;10.70;87.94
13312;BME280;34033;48.672;9.376;2022-12-24T05:19:23;98301.06;;;10.65;88.41
13312;BME280;34033;48.672;9.376;2022-12-24T05:21:48;98309.00;;;10.53;88.11
13312;BME280;34033;48.672;9.376;2022-12-24T05:24:33;98322.53;;;10.36;87.97
13312;BME280;34033;48.672;9.376;2022-12-24T05:27:17;98332.09;;;10.35;88.50
13312;BME280;34033;48.672;9.376;2022-12-24T05:29:43;98317.69;;;10.33;88.63
13312;BME280;34033;48.672;9.376;2022-12-24T05:32:08;98320.88;;;10.32;88.27
13312;BME280;34033;48.672;9.376;2022-12-24T05:34:33;98324.50;;;10.36;88.93
13312;BME280;34033;48.672;9.376;2022-12-24T05:36:59;98316.13;;;10.43;88.47
13312;BME280;34033;48.672;9.376;2022-12-24T05:39:24;98320.94;;;10.42;87.96
13312;BME280;34033;48.672;9.376;2022-12-24T05:41:49;98325.31;;;10.40;87.79
13312;BME280;34033;48.672;9.376;2022-12-24T05:44:15;98314.56;;;10.45;87.86
13312;BME280;34033;48.672;9.376;2022-12-24T05:46:41;98319.34;;;10.45;88.21
13312;BME280;34033;48.672;9.376;2022-12-24T05:49:06;98320.94;;;10.42;87.63
13312;BME280;34033;48.672;9.376;2022-12-24T05:51:31;98316.84;;;10.26;87.62
13312;BME280;34033;48.672;9.376;2022-12-24T05:53:57;98320.88;;;10.32;87.90
13312;BME280;34033;48.672;9.376;2022-12-24T05:56:23;98316.84;;;10.26;87.28
13312;BME280;34033;48.672;9.376;2022-12-24T05:58:49;98328.44;;;10.28;87.41
13312;BME280;34033;48.672;9.376;2022-12-24T06:01:16;98320.88;;;10.28;87.42
13312;BME280;34033;48.672;9.376;2022-12-24T06:03:41;98328.84;;;10.26;87.54
13312;BME280;34033;48.672;9.376;2022-12-24T06:06:12;98334.41;;;10.23;87.46
13312;BME280;34033;48.672;9.376;2022-12-24T06:08:39;98344.78;;;10.22;87.92
13312;BME280;34033;48.672;9.376;2022-12-24T06:11:07;98335.97;;;10.20;87.84
13312;BME280;34033;48.672;9.376;2022-12-24T06:13:34;98330.81;;;10.19;87.67
13312;BME280;34033;48.672;9.376;2022-12-24T06:16:02;98338.38;;;10.18;87.41
13312;BME280;34033;48.672;9.376;2022-12-24T06:18:29;98345.09;;;10.14;87.63
13312;BME280;34033;48.672;9.376;2022-12-24T06:20:56;98350.69;;;10.14;87.56
13312;BME280;34033;48.672;9.376;2022-12-24T06:23:22;98344.25;;;10.10;87.67
13312;BME280;34033;48.672;9.376;2022-12-24T06:25:48;98342.28;;;10.10;87.54
13312;BME280;34033;48.672;9.376;2022-12-24T06:28:15;98346.25;;;10.05;87.37
13312;BME280;34033;48.672;9.376;2022-12-24T06:30:40;98344.63;;;10.04;87.63
13312;BME280;34033;48.672;9.376;2022-12-24T06:33:06;98346.25;;;10.09;88.13
13312;BME280;34033;48.672;9.376;2022-12-24T06:35:32;98344.31;;;10.13;88.09
13312;BME280;34033;48.672;9.376;2022-12-24T06:37:58;98353.16;;;10.19;87.81
13312;BME280;34033;48.672;9.376;2022-12-24T06:40:25;98350.38;;;10.26;87.43
13312;BME280;34033;48.672;9.376;2022-12-24T06:42:50;98366.44;;;10.36;87.55
13312;BME280;34033;48.672;9.376;2022-12-24T06:45:16;98372.44;;;10.45;86.58
13312;BME280;34033;48.672;9.376;2022-12-24T06:47:41;98380.44;;;10.47;86.24
13312;BME280;34033;48.672;9.376;2022-12-24T06:50:07;98382.44;;;10.50;85.99
13312;BME280;34033;48.672;9.376;2022-12-24T06:52:32;98383.25;;;10.54;86.39
13312;BME280;34033;48.672;9.376;2022-12-24T06:54:58;98389.25;;;10.52;85.91
13312;BME280;34033;48.672;9.376;2022-12-24T06:57:23;98391.25;;;10.52;85.82
13312;BME280;34033;48.672;9.376;2022-12-24T06:59:48;98398.47;;;10.53;85.83
13312;BME280;34033;48.672;9.376;2022-12-24T07:02:14;98406.03;;;10.56;85.79
13312;BME280;34033;48.672;9.376;2022-12-24T07:04:39;98406.47;;;10.61;85.31
13312;BME280;34033;48.672;9.376;2022-12-24T07:07:04;98411.25;;;10.64;85.17
13312;BME280;34033;48.672;9.376;2022-12-24T07:09:30;98402.53;;;10.69;85.02
13312;BME280;34033;48.672;9.376;2022-12-24T07:11:55;98415.72;;;10.72;84.35
13312;BME280;34033;48.672;9.376;2022-12-24T07:14:21;98406.56;;;10.79;84.10
13312;BME280;34033;48.672;9.376;2022-12-24T07:16:46;98402.97;;;10.82;83.88
13312;BME280;34033;48.672;9.376;2022-12-24T07:19:12;98411.41;;;10.85;83.36
13312;BME280;34033;48.672;9.376;2022-12-24T07:21:37;98420.59;;;10.90;83.07
13312;BME280;34033;48.672;9.376;2022-12-24T07:24:03;98420.97;;;10.84;82.91
13312;BME280;34033;48.672;9.376;2022-12-24T07:26:28;98424.09;;;10.72;84.02
13312;BME280;34033;48.672;9.376;2022-12-24T07:28:54;98428.50;;;10.73;83.66
13312;BME280;34033;48.672;9.376;2022-12-24T07:31:19;98441.31;;;10.78;83.79
13312;BME280;34033;48.672;9.376;2022-12-24T07:33:44;98434.84;;;10.63;83.72
13312;BME280;34033;48.672;9.376;2022-12-24T07:36:16;98438.03;;;10.62;84.48
13312;BME280;34033;48.672;9.376;2022-12-24T07:38:43;98445.56;;;10.54;84.98
13312;BME280;34033;48.672;9.376;2022-12-24T07:41:08;98447.19;;;10.59;84.99
13312;BME280;34033;48.672;9.376;2022-12-24T07:43:33;98444.00;;;10.60;85.03
13312;BME280;34033;48.672;9.376;2022-12-24T07:45:59;98444.78;;;10.57;84.73
13312;BME280;34033;48.672;9.376;2022-12-24T07:48:26;98448.66;;;10.42;83.97
13312;BME280;34033;48.672;9.376;2022-12-24T07:50:52;98455.41;;;10.34;84.23
13312;BME280;34033;48.672;9.376;2022-12-24T07:53:17;98449.47;;;10.39;84.81
13312;BME280;34033;48.672;9.376;2022-12-24T07:55:43;98447.53;;;10.47;84.99
13312;BME280;34033;48.672;9.376;2022-12-24T07:58:09;98445.94;;;10.49;84.42
13312;BME280;34033;48.672;9.376;2022-12-24T08:00:35;98446.34;;;10.51;84.33
13312;BME280;34033;48.672;9.376;2022-12-24T08:03:00;98457.94;;;10.53;84.49
13312;BME280;34033;48.672;9.376;2022-12-24T08:05:26;98461.56;;;10.57;84.17
13312;BME280;34033;48.672;9.376;2022-12-24T08:07:51;98474.38;;;10.65;84.48
13312;BME280;34033;48.672;9.376;2022-12-24T08:10:17;98466.38;;;10.60;83.66
13312;BME280;34033;48.672;9.376;2022-12-24T08:12:42;98472.38;;;10.62;83.91
13312;BME280;34033;48.672;9.376;2022-12-24T08:15:08;98473.19;;;10.63;83.59
13312;BME280;34033;48.672;9.376;2022-12-24T08:17:33;98475.94;;;10.59;83.43
13312;BME280;34033;48.672;9.376;2022-12-24T08:19:58;98480.72;;;10.59;83.60
13312;BME280;34033;48.672;9.376;2022-12-24T08:22:24;98483.88;;;10.50;83.27
13312;BME280;34033;48.672;9.376;2022-12-24T08:24:49;98483.13;;;10.60;83.79
13312;BME280;34033;48.672;9.376;2022-12-24T08:27:15;98475.13;;;10.59;83.61
13312;BME280;34033;48.672;9.376;2022-12-24T08:29:40;98489.16;;;10.62;83.12
13312;BME280;34033;48.672;9.376;2022-12-24T08:32:05;98487.53;;;10.58;82.93
13312;BME280;34033;48.672;9.376;2022-12-24T08:34:31;98480.34;;;10.57;83.32
13312;BME280;34033;48.672;9.376;2022-12-24T08:36:56;98494.31;;;10.57;83.44
13312;BME280;34033;48.672;9.376;2022-12-24T08:39:22;98490.31;;;10.58;83.11
13312;BME280;34033;48.672;9.376;2022-12-24T08:41:47;98492.34;;;10.64;83.49
13312;BME280;34033;48.672;9.376;2022-12-24T08:44:12;98498.34;;;10.63;82.94
13312;BME280;34033;48.672;9.376;2022-12-24T08:46:38;98510.72;;;10.65;82.63
13312;BME280;34033;48.672;9.376;2022-12-24T08:49:03;98505.94;;;10.66;82.50
13312;BME280;34033;48.672;9.376;2022-12-24T08:51:28;98510.78;;;10.72;82.73
13312;BME280;34033;48.672;9.376;2022-12-24T08:53:54;98516.00;;;10.74;82.13
13312;BME280;34033;48.672;9.376;2022-12-24T08:56:19;98510.78;;;10.72;81.96
13312;BME280;34033;48.672;9.376;2022-12-24T08:58:44;98517.59;;;10.75;81.75
13312;BME280;34033;48.672;9.376;2022-12-24T09:01:15;98530.78;;;10.74;81.51
13312;BME280;34033;48.672;9.376;2022-12-24T09:03:41;98529.56;;;10.75;80.85
13312;BME280;34033;48.672;9.376;2022-12-24T09:06:07;98525.19;;;10.74;81.05
13312;BME280;34033;48.672;9.376;2022-12-24T09:08:33;98528.34;;;10.69;80.62
13312;BME280;34033;48.672;9.376;2022-12-24T09:11:07;98535.94;;;10.72;80.65
13312;BME280;34033;48.672;9.376;2022-12-24T09:13:32;98533.50;;;10.67;80.58
13312;BME280;34033;48.672;9.376;2022-12-24T09:15:58;98533.50;;;10.67;80.50
13312;BME280;34033;48.672;9.376;2022-12-24T09:18:24;98535.94;;;10.69;80.62
13312;BME280;34033;48.672;9.376;2022-12-24T09:20:49;98526.75;;;10.75;79.55
13312;BME280;34033;48.672;9.376;2022-12-24T09:23:15;98536.41;;;10.81;78.97
13312;BME280;34033;48.672;9.376;2022-12-24T09:25:43;98540.84;;;10.90;78.78
13312;BME280;34033;48.672;9.376;2022-12-24T09:28:09;98548.91;;;11.02;78.53
13312;BME280;34033;48.672;9.376;2022-12-24T09:30:35;98549.25;;;10.90;77.62
13312;BME280;34033;48.672;9.376;2022-12-24T09:33:01;98549.25;;;10.90;77.09
13312;BME280;34033;48.672;9.376;2022-12-24T09:35:26;98549.69;;;10.99;77.68
13312;BME280;34033;48.672;9.376;2022-12-24T09:37:52;98539.75;;;11.08;77.40
13312;BME280;34033;48.672;9.376;2022-12-24T09:40:35;98552.88;;;10.97;76.99
13312;BME280;34033;48.672;9.376;2022-12-24T09:43:05;98553.72;;;11.05;76.96
13312;BME280;34033;48.672;9.376;2022-12-24T09:45:37;98540.16;;;11.07;77.04
13312;BME280;34033;48.672;9.376;2022-12-24T09:48:36;98533.72;;;10.99;76.94
13312;BME280;34033;48.672;9.376;2022-12-24T09:51:09;98541.72;;;11.01;77.03
13312;BME280;34033;48.672;9.376;2022-12-24T09:53:54;98538.13;;;11.04;77.56
13312;BME280;34033;48.672;9.376;2022-12-24T09:56:25;98531.34;;;11.01;77.34
13312;BME280;34033;48.672;9.376;2022-12-24T09:59:02;98538.53;;;11.02;77.66
13312;BME280;34033;48.672;9.376;2022-12-24T10:01:30;98537.34;;;11.07;78.09
13312;BME280;34033;48.672;9.376;2022-12-24T10:04:05;98544.56;;;11.11;77.85
13312;BME280;34033;48.672;9.376;2022-12-24T10:06:47;98550.97;;;11.12;77.25
13312;BME280;34033;48.672;9.376;2022-12-24T10:09:24;98553.78;;;11.15;77.42
13312;BME280;34033;48.672;9.376;2022-12-24T10:22:40;98545.97;;;11.56;75.52
13312;BME280;34033;48.672;9.376;2022-12-24T10:25:20;98540.38;;;11.56;74.39
13312;BME280;34033;48.672;9.376;2022-12-24T10:27:50;98548.75;;;11.49;74.65
13312;BME280;34033;48.672;9.376;2022-12-24T10:30:19;98563.56;;;11.53;74.48
13312;BME280;34033;48.672;9.376;2022-12-24T10:32:53;98559.19;;;11.59;74.86
13312;BME280;34033;48.672;9.376;2022-12-24T10:35:25;98565.53;;;11.53;73.86
13312;BME280;34033;48.672;9.376;2022-12-24T10:37:52;98557.97;;;11.57;74.37
13312;BME280;34033;48.672;9.376;2022-12-24T10:40:39;98570.00;;;11.61;74.43
13312;BME280;34033;48.672;9.376;2022-12-24T10:43:22;98561.22;;;11.62;74.33
13312;BME280;34033;48.672;9.376;2022-12-24T10:45:56;98567.25;;;11.75;74.78
13312;BME280;34033;48.672;9.376;2022-12-24T10:48:29;98568.91;;;11.80;73.83
13312;BME280;34033;48.672;9.376;2022-12-24T10:51:02;98564.50;;;11.86;73.58
13312;BME280;34033;48.672;9.376;2022-12-24T10:53:36;98565.31;;;11.97;73.86
13312;BME280;34033;48.672;9.376;2022-12-24T10:56:05;98560.53;;;12.08;73.33
13312;BME280;34033;48.672;9.376;2022-12-24T10:58:32;98564.56;;;12.10;73.22
13312;BME280;34033;48.672;9.376;2022-12-24T11:00:58;98566.16;;;12.15;72.88
13312;BME280;34033;48.672;9.376;2022-12-24T11:03:34;98566.97;;;12.26;72.66
13312;BME280;34033;48.672;9.376;2022-12-24T11:08:25;98567.81;;;12.34;70.70
13312;BME280;34033;48.672;9.376;2022-12-24T11:10:56;98559.78;;;12.36;70.46
13312;BME280;34033;48.672;9.376;2022-12-24T11:13:34;98555.75;;;12.30;69.80
13312;BME280;34033;48.672;9.376;2022-12-24T11:16:04;98550.56;;;12.21;70.20
13312;BME280;34033;48.672;9.376;2022-12-24T11:18:34;98550.94;;;12.20;70.58
13312;BME280;34033;48.672;9.376;2022-12-24T11:21:00;98551.75;;;12.20;70.55
13312;BME280;34033;48.672;9.376;2022-12-24T11:23:27;98554.16;;;12.25;70.23
13312;BME280;34033;48.672;9.376;2022-12-24T11:25:54;98565.78;;;12.27;69.82
13312;BME280;34033;48.672;9.376;2022-12-24T11:28:27;98556.56;;;12.30;70.14
13312;BME280;34033;48.672;9.376;2022-12-24T11:33:30;98563.81;;;12.35;70.21
13312;BME280;34033;48.672;9.376;2022-12-24T11:36:04;98550.97;;;12.30;70.00
13312;BME280;34033;48.672;9.376;2022-12-24T11:38:31;98566.59;;;12.31;69.74
13312;BME280;34033;48.672;9.376;2022-12-24T11:41:00;98556.97;;;12.32;70.35
13312;BME280;34033;48.672;9.376;2022-12-24T11:43:26;98546.97;;;12.38;69.56
13312;BME280;34033;48.672;9.376;2022-12-24T11:46:21;98555.41;;;12.45;69.61
13312;BME280;34033;48.672;9.376;2022-12-24T11:51:37;98545.38;;;12.66;69.58
13312;BME280;34033;48.672;9.376;2022-12-24T11:54:12;98547.75;;;12.74;69.09
13312;BME280;34033;48.672;9.376;2022-12-24T11:56:46;98550.97;;;12.76;69.36
13312;BME280;34033;48.672;9.376;2022-12-24T11:59:23;98554.16;;;12.92;69.00
13312;BME280;34033;48.672;9.376;2022-12-24T12:02:02;98548.94;;;12.98;68.31
13312;BME280;34033;48.672;9.376;2022-12-24T12:04:35;98544.91;;;13.13;67.73
13312;BME280;34033;48.672;9.376;2022-12-24T12:07:24;98542.06;;;13.31;67.72
13312;BME280;34033;48.672;9.376;2022-12-24T12:09:58;98542.81;;;13.42;66.73
13312;BME280;34033;48.672;9.376;2022-12-24T12:12:29;98542.84;;;13.39;66.51
13312;BME280;34033;48.672;9.376;2022-12-24T12:15:15;98541.19;;;13.48;66.37
13312;BME280;34033;48.672;9.376;2022-12-24T12:17:56;98545.19;;;13.51;65.74
13312;BME280;34033;48.672;9.376;2022-12-24T12:20:24;98538.34;;;13.59;66.19
13312;BME280;34033;48.672;9.376;2022-12-24T12:25:58;98534.69;;;13.65;64.54
13312;BME280;34033;48.672;9.376;2022-12-24T12:28:26;98528.59;;;13.81;65.05
13312;BME280;34033;48.672;9.376;2022-12-24T12:31:02;98527.66;;;14.02;64.43
13312;BME280;34033;48.672;9.376;2022-12-24T12:33:46;98528.06;;;14.04;64.44
13312;BME280;34033;48.672;9.376;2022-12-24T12:36:17;98535.13;;;14.23;63.42
13312;BME280;34033;48.672;9.376;2022-12-24T12:38:44;98530.22;;;14.44;62.82
13312;BME280;34033;48.672;9.376;2022-12-24T12:41:37;98537.41;;;14.49;61.75
13312;BME280;34033;48.672;9.376;2022-12-24T12:55:25;98556.53;;;14.09;61.98
13312;BME280;34033;48.672;9.376;2022-12-24T12:57:59;98548.16;;;13.95;61.63
13312;BME280;34033;48.672;9.376;2022-12-24T13:00:26;98555.59;;;13.57;62.35
13312;BME280;34033;48.672;9.376;2022-12-24T13:02:59;98558.41;;;13.54;62.86
13312;BME280;34033;48.672;9.376;2022-12-24T13:16:43;98557.16;;;13.69;63.88
13312;BME280;34033;48.672;9.376;2022-12-24T13:22:01;98543.38;;;13.92;64.23
13312;BME280;34033;48.672;9.376;2022-12-24T13:24:27;98544.22;;;13.86;62.98
13312;BME280;34033;48.672;9.376;2022-12-24T13:27:14;98550.56;;;13.97;63.28
13312;BME280;34033;48.672;9.376;2022-12-24T13:37:33;98552.22;;;13.94;62.93
13312;BME280;34033;48.672;9.376;2022-12-24T13:48:17;98558.34;;;13.68;62.42
13312;BME280;34033;48.672;9.376;2022-12-24T13:50:54;98551.53;;;13.69;62.90
13312;BME280;34033;48.672;9.376;2022-12-24T13:56:09;98553.97;;;13.67;63.36
13312;BME280;34033;48.672;9.376;2022-12-24T13:58:48;98558.03;;;13.55;63.09
13312;BME280;34033;48.672;9.376;2022-12-24T14:01:19;98557.25;;;13.41;63.20
13312;BME280;34033;48.672;9.376;2022-12-24T14:08:46;98544.06;;;13.30;63.88
13312;BME280;34033;48.672;9.376;2022-12-24T14:16:22;98540.34;;;13.51;64.20
13312;BME280;34033;48.672;9.376;2022-12-24T14:21:24;98524.75;;;13.43;64.26
13312;BME280;34033;48.672;9.376;2022-12-24T14:23:56;98525.13;;;13.49;63.90
13312;BME280;34033;48.672;9.376;2022-12-24T14:26:27;98532.31;;;13.57;64.04
13312;BME280;34033;48.672;9.376;2022-12-24T14:28:58;98516.25;;;13.57;63.97
13312;BME280;34033;48.672;9.376;2022-12-24T14:31:25;98514.69;;;13.53;63.83
13312;BME280;34033;48.672;9.376;2022-12-24T14:33:50;98512.72;;;13.50;64.09
13312;BME280;34033;48.672;9.376;2022-12-24T14:36:19;98514.72;;;13.42;64.63
13312;BME280;34033;48.672;9.376;2022-12-24T14:38:46;98524.78;;;13.40;64.99
13312;BME280;34033;48.672;9.376;2022-12-24T14:44:00;98542.84;;;13.39;64.86
13312;BME280;34033;48.672;9.376;2022-12-24T14:46:39;98538.81;;;13.36;65.70
13312;BME280;34033;48.672;9.376;2022-12-24T14:52:16;98525.25;;;13.17;65.66
13312;BME280;34033;48.672;9.376;2022-12-24T14:54:46;98524.06;;;13.14;66.47